Airport View

Enter AWOS ICAO identifier for current METAR.

ex. KFNL

KPVD 080451Z 04004KT 10SM FEW090 19/17 A3016 RMK AO2 SLP211 T01940167 402780194

8 Aug 2020 05:20

Frequency: 124.2

Phone: 401-734-2818

Other Area AWOS: KOQU - KSFZ - KUUU - KTAN

TAF KPVD 072325Z 0800/0824 11005KT P6SM FEW250 FM080200 09003KT P6SM BKN100 FM081200 03005KT P6SM BKN012 FM081500 07005KT P6SM BKN035 FM082300 17006KT P6SM SCT060